Time;durP1;ratioP1;P1;durP2;ratioP2;P2;SDS_P1;SDS_P2;PMS_P1;PMS_P2;Temp;Humidity;BMP_temperature;BMP_pressure;BME280_temperature;BME280_humidity;BME280_pressure;Samples;Min_cycle;Max_cycle;Signal;HPM_P1;HPM_P2
2022/03/06 00:01:12;;;;;;;13.88;9.02;;;;;;;9.63;26.30;101857.06;4924319;29;20063;-88
2022/03/06 00:03:40;;;;;;;17.80;9.98;;;;;;;9.58;26.37;101859.97;4950897;28;20066;-88
2022/03/06 00:06:07;;;;;;;14.95;9.32;;;;;;;9.55;26.03;101874.53;4923066;29;20099;-88
2022/03/06 00:08:33;;;;;;;14.95;9.18;;;;;;;9.52;26.23;101869.28;4928675;29;20052;-88
2022/03/06 00:11:00;;;;;;;14.77;9.43;;;;;;;9.49;26.32;101872.13;4927852;29;20107;-88
2022/03/06 00:13:27;;;;;;;15.77;9.27;;;;;;;9.45;26.20;101867.81;4920334;29;20107;-88
2022/03/06 00:15:54;;;;;;;17.02;9.75;;;;;;;9.43;26.57;101857.97;4920097;29;20134;-88
2022/03/06 00:18:21;;;;;;;14.23;8.93;;;;;;;9.40;26.45;101858.09;4922479;29;20574;-88
2022/03/06 00:20:47;;;;;;;14.68;9.68;;;;;;;9.38;26.53;101860.03;4926497;29;20149;-89
2022/03/06 00:23:14;;;;;;;14.70;9.25;;;;;;;9.35;26.63;101863.75;4930005;29;20050;-88
2022/03/06 00:25:41;;;;;;;15.63;9.00;;;;;;;9.33;26.72;101857.50;4942788;29;20126;-89
2022/03/06 00:28:08;;;;;;;13.02;9.05;;;;;;;9.32;26.61;101861.16;4926699;29;20190;-88
2022/03/06 00:30:34;;;;;;;15.85;9.70;;;;;;;9.30;26.48;101860.38;4940904;29;20051;-88
2022/03/06 00:33:01;;;;;;;17.00;10.43;;;;;;;9.27;26.71;101851.50;4934713;29;20115;-88
2022/03/06 00:35:28;;;;;;;14.50;9.43;;;;;;;9.24;26.71;101852.50;4935921;29;20102;-89
2022/03/06 00:37:56;;;;;;;17.58;10.07;;;;;;;9.21;26.67;101852.66;4931924;29;20071;-89
2022/03/06 00:40:23;;;;;;;15.10;9.80;;;;;;;9.17;26.66;101867.28;4939516;28;20147;-88
2022/03/06 00:42:51;;;;;;;15.32;9.77;;;;;;;9.12;26.77;101867.50;4919847;29;20044;-88
2022/03/06 00:45:18;;;;;;;16.23;9.43;;;;;;;9.09;26.76;101862.22;4916733;29;20047;-88
2022/03/06 00:47:45;;;;;;;16.90;9.50;;;;;;;9.08;26.91;101855.03;4925916;29;20115;-88
2022/03/06 00:50:12;;;;;;;16.77;9.50;;;;;;;9.05;26.74;101866.03;4924191;29;20098;-87
2022/03/06 00:52:39;;;;;;;16.75;9.98;;;;;;;9.02;26.93;101863.44;4928688;29;20048;-87
2022/03/06 00:55:07;;;;;;;18.17;10.02;;;;;;;9.00;26.78;101856.31;4917507;29;20076;-86
2022/03/06 00:57:34;;;;;;;16.02;9.82;;;;;;;8.97;26.76;101861.88;4936288;29;20090;-86
2022/03/06 01:00:03;;;;;;;16.33;9.63;;;;;;;8.96;26.66;101862.81;4916408;29;20584;-87
2022/03/06 01:02:30;;;;;;;16.98;9.88;;;;;;;8.92;27.12;101870.19;4932521;29;20444;-87
2022/03/06 01:04:57;;;;;;;14.68;9.48;;;;;;;8.91;26.95;101864.84;4922525;29;20055;-87
2022/03/06 01:07:24;;;;;;;15.82;10.25;;;;;;;8.89;26.98;101870.34;4918322;29;20051;-87
2022/03/06 01:09:51;;;;;;;16.20;9.65;;;;;;;8.88;26.84;101865.88;4934353;29;20043;-86
2022/03/06 01:12:18;;;;;;;15.93;9.52;;;;;;;8.87;27.07;101865.94;4936407;28;20060;-86
2022/03/06 01:14:46;;;;;;;15.07;9.30;;;;;;;8.85;27.27;101866.00;4919322;29;20048;-87
2022/03/06 01:17:13;;;;;;;17.33;9.85;;;;;;;8.84;27.35;101882.31;4923534;29;20119;-87
2022/03/06 01:19:40;;;;;;;15.02;9.40;;;;;;;8.83;27.33;101875.13;4935723;29;20507;-87
2022/03/06 01:22:06;;;;;;;15.30;9.25;;;;;;;8.82;27.44;101878.78;4926484;29;20138;-87
2022/03/06 01:24:33;;;;;;;16.85;10.82;;;;;;;8.81;27.39;101879.75;4948081;28;20135;-87
2022/03/06 01:26:59;;;;;;;17.30;9.85;;;;;;;8.79;27.42;101882.53;4938227;29;20135;-87
2022/03/06 01:29:26;;;;;;;17.85;10.98;;;;;;;8.79;27.50;101885.22;4919509;29;20047;-87
2022/03/06 01:31:53;;;;;;;17.13;10.88;;;;;;;8.77;27.32;101882.56;4915078;29;20138;-87
2022/03/06 01:34:20;;;;;;;17.48;10.73;;;;;;;8.76;27.40;101880.81;4921258;29;20047;-87
2022/03/06 01:36:49;;;;;;;18.27;11.15;;;;;;;8.74;27.39;101888.13;4926558;29;20135;-87
2022/03/06 01:39:19;;;;;;;18.80;11.50;;;;;;;8.71;27.49;101890.09;4923749;29;20162;-87
2022/03/06 01:41:46;;;;;;;18.52;10.60;;;;;;;8.71;27.48;101890.97;4922823;29;20051;-87
2022/03/06 01:44:13;;;;;;;16.92;11.05;;;;;;;8.70;27.69;101891.03;4922533;29;20134;-87
2022/03/06 01:46:40;;;;;;;17.08;10.32;;;;;;;8.67;27.70;101900.16;4924427;29;20078;-87
2022/03/06 01:49:07;;;;;;;16.95;11.10;;;;;;;8.67;27.73;101899.28;4930177;29;20059;-88
2022/03/06 01:51:34;;;;;;;17.70;10.48;;;;;;;8.65;27.65;101896.63;4923008;29;20070;-87
2022/03/06 01:54:01;;;;;;;16.30;10.88;;;;;;;8.64;27.85;101894.00;4933827;29;20094;-87
2022/03/06 01:56:27;;;;;;;17.52;10.43;;;;;;;8.63;27.90;101894.94;4939545;29;20542;-88
2022/03/06 01:58:55;;;;;;;15.85;10.15;;;;;;;8.62;27.65;101901.31;4918229;29;20052;-87
2022/03/06 02:01:22;;;;;;;19.60;11.13;;;;;;;8.60;27.77;101897.78;4918049;29;20375;-87
2022/03/06 02:03:49;;;;;;;18.48;11.07;;;;;;;8.58;27.85;101896.94;4917931;29;20102;-87
2022/03/06 02:06:19;;;;;;;16.80;10.27;;;;;;;8.56;28.03;101902.44;4940524;29;20135;-88
2022/03/06 02:08:46;;;;;;;18.25;10.48;;;;;;;8.54;27.77;101901.63;4918124;29;20118;-87
2022/03/06 02:11:14;;;;;;;17.88;10.80;;;;;;;8.52;27.76;101900.81;4922996;29;20527;-87
2022/03/06 02:13:41;;;;;;;15.98;10.10;;;;;;;8.51;27.97;101892.75;4921556;29;20051;-87
2022/03/06 02:16:08;;;;;;;17.50;10.18;;;;;;;8.50;28.06;101905.41;4940152;29;20051;-86
2022/03/06 02:18:36;;;;;;;17.38;10.50;;;;;;;8.49;27.72;101905.44;4946343;28;20044;-87
2022/03/06 02:21:11;;;;;;;16.98;10.70;;;;;;;8.49;28.30;101909.03;4942803;29;20075;-87
2022/03/06 02:23:39;;;;;;;16.77;10.10;;;;;;;8.44;27.99;101902.06;4916557;29;20047;-87
2022/03/06 02:26:07;;;;;;;15.55;9.05;;;;;;;8.42;28.01;101895.81;4930261;29;20086;-87
2022/03/06 02:28:34;;;;;;;17.73;10.23;;;;;;;8.39;28.04;101902.28;4930050;29;20436;-87
2022/03/06 02:31:02;;;;;;;15.82;9.70;;;;;;;8.37;28.14;101901.44;4937501;29;20063;-87
2022/03/06 02:33:29;;;;;;;15.35;9.25;;;;;;;8.34;28.22;101902.44;4926537;29;20055;-87
2022/03/06 02:35:56;;;;;;;16.60;9.73;;;;;;;8.33;28.35;101892.56;4923340;29;20095;-87
2022/03/06 02:38:22;;;;;;;15.98;10.02;;;;;;;8.31;28.20;101893.59;4924844;29;20107;-87
2022/03/06 02:40:52;;;;;;;15.73;9.52;;;;;;;8.31;28.51;101888.19;4939527;29;20047;-87
2022/03/06 02:43:20;;;;;;;14.82;9.35;;;;;;;8.29;28.20;101898.13;4922319;29;20047;-87
2022/03/06 02:45:47;;;;;;;14.73;9.32;;;;;;;8.26;28.33;101891.00;4918942;29;20059;-87
2022/03/06 02:48:14;;;;;;;16.52;9.57;;;;;;;8.25;28.01;101891.97;4922752;28;20146;-87
2022/03/06 02:50:43;;;;;;;15.85;8.80;;;;;;;8.23;28.69;101888.47;4927637;29;20055;-87
2022/03/06 02:53:10;;;;;;;14.80;9.00;;;;;;;8.22;28.46;101888.50;4935411;29;20083;-87
2022/03/06 02:55:38;;;;;;;14.40;9.13;;;;;;;8.20;28.48;101893.97;4935612;29;20134;-87
2022/03/06 02:58:04;;;;;;;14.38;9.15;;;;;;;8.20;28.84;101887.69;4938037;29;20300;-87
2022/03/06 03:00:31;;;;;;;14.98;9.25;;;;;;;8.17;28.57;101883.28;4918841;29;20043;-87
2022/03/06 03:02:58;;;;;;;15.02;9.40;;;;;;;8.16;28.71;101886.03;4928722;29;20504;-88
2022/03/06 03:05:26;;;;;;;17.83;9.23;;;;;;;8.14;28.63;101890.66;4948584;28;20276;-87
2022/03/06 03:07:53;;;;;;;14.50;8.90;;;;;;;8.11;28.72;101886.22;4920786;29;20062;-87
2022/03/06 03:10:22;;;;;;;15.23;9.38;;;;;;;8.11;28.57;101891.63;4923277;29;20052;-88
2022/03/06 03:12:50;;;;;;;14.20;8.80;;;;;;;8.08;28.67;101886.34;4935000;29;20051;-87
2022/03/06 03:15:17;;;;;;;14.80;9.15;;;;;;;8.06;28.85;101890.06;4918120;29;20052;-87
2022/03/06 03:17:44;;;;;;;16.83;9.85;;;;;;;8.05;28.91;101893.72;4927321;29;20051;-87
2022/03/06 03:20:12;;;;;;;14.35;8.65;;;;;;;8.05;28.81;101891.91;4924066;29;20048;-87
2022/03/06 03:22:40;;;;;;;12.75;8.60;;;;;;;8.03;28.71;101896.47;4928009;29;20138;-88
2022/03/06 03:25:07;;;;;;;14.02;8.07;;;;;;;8.01;28.75;101893.81;4918767;29;20677;-87
2022/03/06 03:27:34;;;;;;;14.98;9.25;;;;;;;8.02;28.95;101902.81;4926821;29;20126;-87
2022/03/06 03:30:03;;;;;;;13.93;8.63;;;;;;;8.01;29.02;101906.47;4921630;29;20905;-87
2022/03/06 03:32:30;;;;;;;14.70;8.90;;;;;;;7.98;28.78;101904.78;4934215;29;20066;-87
2022/03/06 03:34:56;;;;;;;14.50;8.68;;;;;;;7.96;29.01;101903.06;4923815;28;20119;-87
2022/03/06 03:37:23;;;;;;;14.35;9.57;;;;;;;7.96;29.09;101905.78;4938335;29;20051;-88
2022/03/06 03:39:50;;;;;;;14.10;8.25;;;;;;;7.94;28.94;101905.81;4925196;29;20047;-88
2022/03/06 03:42:17;;;;;;;15.48;8.52;;;;;;;7.91;28.98;101911.34;4940322;29;20047;-87
2022/03/06 03:44:43;;;;;;;16.50;9.45;;;;;;;7.90;28.99;101904.19;4921537;29;20057;-87
2022/03/06 03:47:10;;;;;;;15.32;8.32;;;;;;;7.90;28.95;101919.53;4919033;29;20048;-87
2022/03/06 03:49:37;;;;;;;13.02;8.85;;;;;;;7.88;29.08;101913.31;4928168;29;20134;-87
2022/03/06 03:52:04;;;;;;;14.30;8.10;;;;;;;7.87;29.34;101912.44;4926377;29;20082;-88
2022/03/06 03:54:31;;;;;;;13.85;8.80;;;;;;;7.85;29.24;101922.41;4949012;28;20334;-87
2022/03/06 03:56:57;;;;;;;15.15;8.65;;;;;;;7.85;29.39;101919.72;4916746;29;20578;-88
2022/03/06 03:59:24;;;;;;;14.73;8.20;;;;;;;7.83;29.45;101913.47;4922981;29;20083;-88
2022/03/06 04:01:51;;;;;;;13.25;8.50;;;;;;;7.83;29.39;101912.59;4926434;29;20082;-88
2022/03/06 04:04:19;;;;;;;13.82;7.88;;;;;;;7.83;29.30;101916.16;4940137;28;20255;-88
2022/03/06 04:06:46;;;;;;;13.90;8.27;;;;;;;7.84;29.33;101911.66;4939417;29;20074;-87
2022/03/06 04:09:12;;;;;;;14.60;8.57;;;;;;;7.84;29.66;101914.34;4933503;29;20123;-87
2022/03/06 04:11:39;;;;;;;14.85;8.77;;;;;;;7.83;29.51;101920.69;4924259;29;20051;-87
2022/03/06 04:14:06;;;;;;;13.18;8.05;;;;;;;7.82;29.67;101918.97;4918371;29;20075;-87
2022/03/06 04:16:33;;;;;;;13.48;8.68;;;;;;;7.82;29.66;101921.66;4924197;29;20143;-87
2022/03/06 04:19:00;;;;;;;14.93;8.65;;;;;;;7.81;29.75;101920.78;4921103;29;20064;-86
2022/03/06 04:21:26;;;;;;;12.65;7.65;;;;;;;7.80;29.52;101924.41;4945896;29;20486;-87
2022/03/06 04:23:53;;;;;;;13.05;7.55;;;;;;;7.79;29.77;101921.78;4931037;29;20059;-87
2022/03/06 04:26:20;;;;;;;14.00;8.88;;;;;;;7.80;29.73;101931.66;4939644;29;20522;-86
2022/03/06 04:28:46;;;;;;;15.07;9.02;;;;;;;7.80;29.75;101928.94;4929197;29;20158;-87
2022/03/06 04:31:13;;;;;;;12.68;8.13;;;;;;;7.80;29.71;101934.34;4937087;29;20579;-87
2022/03/06 04:33:40;;;;;;;14.57;8.52;;;;;;;7.80;29.63;101937.06;4917529;29;20570;-87
2022/03/06 04:36:07;;;;;;;13.95;8.90;;;;;;;7.80;29.98;101937.06;4925346;29;20453;-87
2022/03/06 04:38:34;;;;;;;13.90;8.27;;;;;;;7.80;29.98;101945.16;4926245;29;20044;-87
2022/03/06 04:41:00;;;;;;;12.80;8.00;;;;;;;7.80;29.83;101939.75;4938254;29;20068;-87
2022/03/06 04:43:27;;;;;;;14.20;8.07;;;;;;;7.80;29.82;101940.63;4936335;29;20515;-87
2022/03/06 04:45:53;;;;;;;13.90;8.20;;;;;;;7.80;29.85;101950.56;4938227;29;20126;-87
2022/03/06 04:48:20;;;;;;;13.95;8.73;;;;;;;7.80;30.18;101939.75;4938410;29;20255;-86
2022/03/06 04:50:47;;;;;;;15.63;8.35;;;;;;;7.80;30.16;101946.03;4922654;29;20190;-87
2022/03/06 04:53:13;;;;;;;14.77;9.23;;;;;;;7.80;30.03;101946.03;4921648;29;20440;-87
2022/03/06 04:55:40;;;;;;;13.30;8.23;;;;;;;7.80;29.99;101948.75;4918350;29;20083;-87
2022/03/06 04:58:07;;;;;;;14.65;8.23;;;;;;;7.82;30.06;101952.28;4920728;29;20051;-87
2022/03/06 05:00:33;;;;;;;12.88;8.45;;;;;;;7.82;30.01;101955.00;4936230;29;20694;-87
2022/03/06 05:03:00;;;;;;;14.68;8.55;;;;;;;7.83;30.02;101945.91;4925559;29;20063;-86
2022/03/06 05:05:28;;;;;;;14.15;8.15;;;;;;;7.83;30.30;101950.44;4938526;29;20086;-87
2022/03/06 05:07:54;;;;;;;12.75;7.80;;;;;;;7.84;30.24;101960.31;4944784;29;20142;-87
2022/03/06 05:10:21;;;;;;;13.30;8.00;;;;;;;7.85;30.09;101965.66;4921541;29;20056;-87
2022/03/06 05:12:48;;;;;;;14.45;7.68;;;;;;;7.87;30.02;101952.09;4934805;29;20099;-86
2022/03/06 05:15:15;;;;;;;13.45;8.32;;;;;;;7.87;30.22;101957.50;4924263;29;20487;-87
2022/03/06 05:17:42;;;;;;;14.40;8.32;;;;;;;7.87;30.11;101943.97;4942185;29;20078;-87
2022/03/06 05:20:10;;;;;;;13.00;8.15;;;;;;;7.88;30.33;101941.22;4933642;29;20195;-87
2022/03/06 05:22:38;;;;;;;13.32;8.05;;;;;;;7.88;30.36;101946.63;4937242;29;20452;-87
2022/03/06 05:25:07;;;;;;;14.18;8.20;;;;;;;7.88;30.57;101943.03;4931800;29;20067;-87
2022/03/06 05:27:36;;;;;;;13.93;8.23;;;;;;;7.87;30.36;101947.56;4925677;29;20071;-87
2022/03/06 05:30:08;;;;;;;14.63;9.07;;;;;;;7.88;30.74;101943.03;4935206;28;20069;-87
2022/03/06 05:32:35;;;;;;;14.15;8.30;;;;;;;7.82;30.50;101944.19;4913008;29;20100;-87
2022/03/06 05:35:02;;;;;;;14.50;8.85;;;;;;;7.83;30.60;101939.63;4924846;29;20078;-87
2022/03/06 05:37:29;;;;;;;13.38;8.52;;;;;;;7.81;30.21;101937.00;4939923;29;20136;-87
2022/03/06 05:39:56;;;;;;;12.10;7.88;;;;;;;7.82;30.43;101946.00;4922398;29;20055;-87
2022/03/06 05:42:23;;;;;;;14.15;8.38;;;;;;;7.82;30.14;101946.00;4938137;29;20316;-87
2022/03/06 05:44:50;;;;;;;13.88;8.75;;;;;;;7.83;30.71;101947.72;4931927;29;20134;-87
2022/03/06 05:47:17;;;;;;;12.85;8.40;;;;;;;7.82;30.41;101955.00;4918400;29;20563;-87
2022/03/06 05:49:44;;;;;;;13.68;8.80;;;;;;;7.82;30.62;101963.09;4933117;29;20047;-87
2022/03/06 05:52:11;;;;;;;15.65;8.50;;;;;;;7.82;30.46;101970.31;4919620;29;20051;-87
2022/03/06 05:54:37;;;;;;;15.60;8.55;;;;;;;7.82;30.47;101967.63;4936414;29;20090;-87
2022/03/06 05:57:04;;;;;;;13.93;8.60;;;;;;;7.80;30.40;101962.25;4919627;29;20134;-86
2022/03/06 05:59:31;;;;;;;11.25;7.70;;;;;;;7.80;30.62;101972.19;4924085;29;20055;-87
2022/03/06 06:01:57;;;;;;;13.38;8.32;;;;;;;7.79;30.43;101975.84;4922613;29;20336;-87
2022/03/06 06:04:24;;;;;;;15.05;8.65;;;;;;;7.77;30.42;101972.31;4931676;29;20047;-87
2022/03/06 06:06:51;;;;;;;13.13;8.50;;;;;;;7.77;30.48;101989.41;4922063;29;20134;-87
2022/03/06 06:09:18;;;;;;;15.00;8.70;;;;;;;7.77;30.41;101992.09;4936214;29;20071;-87
2022/03/06 06:11:45;;;;;;;13.80;8.35;;;;;;;7.75;30.58;101990.38;4919491;29;20068;-87
2022/03/06 06:14:12;;;;;;;12.68;8.07;;;;;;;7.74;30.74;101988.66;4921825;29;20099;-86
2022/03/06 06:16:46;;;;;;;15.07;8.75;;;;;;;7.71;30.67;101999.56;4920068;29;20048;-86
2022/03/06 06:19:13;;;;;;;13.45;8.52;;;;;;;7.70;30.83;102004.09;4923534;29;20054;-86
2022/03/06 06:21:43;;;;;;;13.85;9.02;;;;;;;7.69;30.85;102007.72;4927675;29;20042;-86
2022/03/06 06:24:14;;;;;;;14.52;8.30;;;;;;;7.70;31.30;102004.09;4929867;29;20059;-87
2022/03/06 06:26:49;;;;;;;13.93;8.57;;;;;;;7.68;31.28;102003.25;4935734;29;20051;-86
2022/03/06 06:29:15;;;;;;;13.57;8.82;;;;;;;7.64;30.65;102013.31;4905458;29;20065;-87
2022/03/06 06:31:42;;;;;;;12.23;8.35;;;;;;;7.63;30.38;102006.13;4918080;29;20565;-87
2022/03/06 06:34:11;;;;;;;13.98;8.93;;;;;;;7.62;30.74;102011.59;4927021;29;20062;-87
2022/03/06 06:36:37;;;;;;;15.48;8.95;;;;;;;7.61;30.88;102015.22;4935204;29;20063;-87
2022/03/06 06:39:05;;;;;;;15.27;8.45;;;;;;;7.60;30.56;102018.88;4924608;29;20107;-87
2022/03/06 06:41:31;;;;;;;14.27;8.50;;;;;;;7.60;30.86;102021.56;4939580;29;20076;-87
2022/03/06 06:43:58;;;;;;;13.77;8.30;;;;;;;7.59;30.70;102027.91;4922830;29;20071;-87
2022/03/06 06:46:25;;;;;;;14.93;9.10;;;;;;;7.58;30.90;102024.31;4915841;29;20436;-87
2022/03/06 06:48:51;;;;;;;14.27;8.98;;;;;;;7.59;30.93;102027.91;4930634;29;20150;-87
2022/03/06 06:51:18;;;;;;;14.98;8.57;;;;;;;7.59;30.93;102036.00;4944584;29;20083;-87
2022/03/06 06:53:44;;;;;;;16.27;9.48;;;;;;;7.58;31.10;102032.44;4919892;29;20051;-87
2022/03/06 06:56:15;;;;;;;14.65;8.75;;;;;;;7.59;31.13;102041.41;4921180;29;20500;-87
2022/03/06 06:58:42;;;;;;;14.48;9.15;;;;;;;7.59;31.41;102044.13;4915856;29;20051;-87
2022/03/06 07:01:09;;;;;;;14.88;9.15;;;;;;;7.61;31.21;102050.38;4918103;29;20059;-87
2022/03/06 07:03:36;;;;;;;13.90;9.00;;;;;;;7.62;31.25;102053.03;4916001;29;20432;-87
2022/03/06 07:06:02;;;;;;;15.63;9.20;;;;;;;7.63;31.10;102057.50;4915995;29;20118;-89
2022/03/06 07:08:29;;;;;;;16.40;9.38;;;;;;;7.64;31.24;102058.38;4917967;29;20079;-87
2022/03/06 07:10:55;;;;;;;17.10;9.77;;;;;;;7.67;31.01;102060.94;4922329;29;20092;-88
2022/03/06 07:13:22;;;;;;;15.38;9.60;;;;;;;7.68;31.28;102056.44;4929789;28;20063;-88
2022/03/06 07:15:49;;;;;;;17.27;9.95;;;;;;;7.70;31.57;102065.38;4922285;29;20043;-87
2022/03/06 07:18:15;;;;;;;17.33;9.80;;;;;;;7.71;31.33;102072.56;4941418;28;20491;-87
2022/03/06 07:20:42;;;;;;;17.15;10.05;;;;;;;7.72;31.46;102069.78;4933174;29;20596;-87
2022/03/06 07:23:09;;;;;;;16.98;9.80;;;;;;;7.74;31.44;102073.31;4948243;28;20068;-87
2022/03/06 07:25:36;;;;;;;16.23;10.07;;;;;;;7.75;31.56;102072.38;4919527;29;20595;-87
2022/03/06 07:28:04;;;;;;;15.82;9.50;;;;;;;7.80;31.54;102080.34;4934731;29;20146;-87
2022/03/06 07:30:30;;;;;;;18.13;10.73;;;;;;;7.81;31.66;102072.19;4920517;29;20130;-87
2022/03/06 07:33:00;;;;;;;17.67;9.90;;;;;;;7.88;31.70;102067.41;4928377;29;20662;-87
2022/03/06 07:35:27;;;;;;;18.65;11.10;;;;;;;7.92;32.21;102072.66;4923097;29;20044;-88
2022/03/06 07:37:54;;;;;;;15.13;10.25;;;;;;;8.01;32.50;102068.72;4921137;29;20075;-87
2022/03/06 07:40:22;;;;;;;16.33;10.85;;;;;;;8.14;32.62;102072.75;4918952;29;20119;-87
2022/03/06 07:42:54;;;;;;;20.55;11.57;;;;;;;8.27;32.55;102076.75;4943104;29;20055;-87
2022/03/06 07:45:21;;;;;;;19.20;10.98;;;;;;;8.41;32.71;102076.25;4940732;29;20090;-87
2022/03/06 07:47:47;;;;;;;18.38;11.27;;;;;;;8.55;32.39;102075.75;4918561;29;20067;-87
2022/03/06 07:50:15;;;;;;;17.50;11.15;;;;;;;8.68;32.27;102083.31;4928776;29;20130;-87
2022/03/06 07:52:42;;;;;;;16.90;10.80;;;;;;;8.83;32.20;102083.63;4942011;29;20047;-88
2022/03/06 07:55:10;;;;;;;17.85;10.75;;;;;;;8.93;32.32;102085.94;4929167;29;20181;-88
2022/03/06 07:57:38;;;;;;;18.40;10.85;;;;;;;9.04;32.39;102090.91;4941186;29;20135;-87
2022/03/06 08:00:10;;;;;;;17.85;11.18;;;;;;;9.20;31.95;102094.75;4921376;29;20060;-88
2022/03/06 08:02:38;;;;;;;15.80;10.40;;;;;;;9.33;32.19;102097.81;4929912;29;20115;-88
2022/03/06 08:05:06;;;;;;;16.80;9.90;;;;;;;9.47;31.91;102093.56;4919186;29;20214;-89
2022/03/06 08:07:33;;;;;;;13.85;9.35;;;;;;;9.61;32.08;102093.00;4934343;29;20483;-88
2022/03/06 08:10:04;;;;;;;16.23;10.05;;;;;;;9.73;31.68;102097.88;4930903;29;20288;-84
2022/03/06 08:12:30;;;;;;;15.10;9.85;;;;;;;9.84;31.65;102092.00;4934596;29;20047;-88
2022/03/06 08:14:57;;;;;;;17.35;10.18;;;;;;;9.95;31.37;102091.53;4917101;29;20062;-89
2022/03/06 08:17:24;;;;;;;14.18;9.65;;;;;;;10.03;31.38;102089.34;4938496;28;20477;-90
2022/03/06 08:19:53;;;;;;;17.10;10.40;;;;;;;10.10;31.24;102094.44;4916632;29;20052;-89
2022/03/06 08:22:21;;;;;;;15.13;9.85;;;;;;;10.16;30.92;102096.88;4898619;29;20097;-85
2022/03/06 08:24:48;;;;;;;16.17;10.02;;;;;;;10.20;30.93;102100.38;4914322;29;20504;-88
2022/03/06 08:27:15;;;;;;;14.95;9.40;;;;;;;10.24;30.63;102093.81;4898835;29;20154;-88
2022/03/06 08:29:42;;;;;;;16.27;9.70;;;;;;;10.27;30.56;102101.84;4916101;29;20492;-89
2022/03/06 08:32:09;;;;;;;13.75;9.30;;;;;;;10.28;30.36;102107.22;4913874;29;20052;-90
2022/03/06 08:34:36;;;;;;;17.13;9.95;;;;;;;10.29;30.36;102106.22;4920833;29;20163;-89
2022/03/06 08:37:03;;;;;;;15.40;9.15;;;;;;;10.30;29.95;102104.41;4917875;29;20060;-89
2022/03/06 08:39:30;;;;;;;14.55;9.77;;;;;;;10.29;30.10;102103.50;4901063;29;20052;-89
2022/03/06 08:41:57;;;;;;;16.67;10.43;;;;;;;10.30;29.89;102109.81;4925866;29;20557;-89
2022/03/06 08:44:24;;;;;;;16.38;10.43;;;;;;;10.29;29.83;102106.22;4918794;29;20125;-90
2022/03/06 08:46:51;;;;;;;14.75;9.60;;;;;;;10.27;30.12;102113.59;4913639;29;20052;-89
2022/03/06 08:49:19;;;;;;;14.85;9.23;;;;;;;10.28;29.90;102123.50;4911148;29;20497;-90
2022/03/06 08:51:45;;;;;;;13.48;9.23;;;;;;;10.27;30.43;102119.00;4917207;29;20047;-89
2022/03/06 08:54:12;;;;;;;13.85;9.05;;;;;;;10.28;30.07;102118.06;4934650;29;20043;-89
2022/03/06 08:56:39;;;;;;;15.32;9.98;;;;;;;10.29;30.25;102119.81;4933393;29;20071;-90
2022/03/06 08:59:05;;;;;;;15.00;9.77;;;;;;;10.32;29.92;102126.06;4934213;29;20094;-89
2022/03/06 09:01:32;;;;;;;17.10;10.40;;;;;;;10.34;30.46;102118.72;4938817;29;20126;-89
2022/03/06 09:04:19;;;;;;;17.23;10.63;;;;;;;10.36;30.23;102114.13;4938719;28;20047;-88
2022/03/06 09:06:46;;;;;;;14.95;10.00;;;;;;;10.36;30.19;102117.72;4894835;29;20053;-85
2022/03/06 09:09:13;;;;;;;17.10;10.27;;;;;;;10.41;30.13;102121.09;4861679;29;20076;-89
2022/03/06 09:11:39;;;;;;;16.70;10.48;;;;;;;10.44;30.26;102120.97;4883038;29;20529;-90
2022/03/06 09:14:07;;;;;;;15.07;10.07;;;;;;;10.47;30.12;102126.22;4885516;29;20053;-89
2022/03/06 09:16:34;;;;;;;16.10;10.50;;;;;;;10.50;30.16;102117.06;4880349;29;20112;-89
2022/03/06 09:19:01;;;;;;;15.27;10.13;;;;;;;10.50;30.29;102115.25;4878669;29;20057;-88
2022/03/06 09:21:28;;;;;;;17.52;11.23;;;;;;;10.54;30.17;102118.69;4880595;29;20090;-90
2022/03/06 09:23:55;;;;;;;17.58;11.05;;;;;;;10.56;29.95;102117.66;4868145;29;20049;-91
2022/03/06 09:26:22;;;;;;;15.40;10.10;;;;;;;10.60;30.17;102127.44;4883188;29;20060;-90
2022/03/06 09:28:48;;;;;;;17.70;10.38;;;;;;;10.65;30.29;102128.09;4876628;29;20045;-90
2022/03/06 09:31:15;;;;;;;14.52;10.25;;;;;;;10.71;30.35;102123.34;4884591;29;20052;-90
2022/03/06 09:33:42;;;;;;;15.10;9.88;;;;;;;10.78;30.23;102130.25;4882018;29;20060;-90
2022/03/06 09:36:29;;;;;;;17.08;10.10;;;;;;;10.82;30.30;102127.31;4896329;29;20053;-89
2022/03/06 09:38:56;;;;;;;16.15;10.32;;;;;;;10.89;30.25;102123.31;4879967;29;20072;-89
2022/03/06 09:41:26;;;;;;;15.23;9.90;;;;;;;10.96;30.31;102124.78;4867711;29;20155;-91
2022/03/06 09:43:57;;;;;;;16.92;10.32;;;;;;;11.01;30.59;102121.88;4903408;29;20519;-85
2022/03/06 09:46:25;;;;;;;15.10;9.65;;;;;;;11.05;30.30;102121.63;4935750;29;20086;-89
2022/03/06 09:48:52;;;;;;;16.80;10.88;;;;;;;11.11;30.07;102115.03;4939188;29;20058;-89
2022/03/06 09:51:20;;;;;;;15.20;9.57;;;;;;;11.17;30.23;102125.59;4918964;29;20047;-88
2022/03/06 09:53:46;;;;;;;15.95;10.32;;;;;;;11.22;30.14;102125.34;4935159;29;20499;-89
2022/03/06 09:56:13;;;;;;;15.38;11.07;;;;;;;11.24;30.19;102116.19;4926179;29;20085;-86
2022/03/06 09:58:40;;;;;;;15.55;10.05;;;;;;;11.29;30.00;102121.38;4937880;28;20075;-89
2022/03/06 10:01:09;;;;;;;16.05;10.57;;;;;;;11.35;30.02;102123.81;4925618;29;20047;-89
2022/03/06 10:03:36;;;;;;;16.88;10.93;;;;;;;11.38;29.81;102127.25;4934810;28;20487;-90
2022/03/06 10:06:07;;;;;;;15.63;10.30;;;;;;;11.45;29.80;102123.25;4928559;28;20107;-90
2022/03/06 10:08:34;;;;;;;15.20;10.68;;;;;;;11.47;29.82;102122.31;4946735;28;20051;-91
2022/03/06 10:11:14;;;;;;;15.50;10.35;;;;;;;11.50;29.88;102120.31;4925096;29;20078;-88
2022/03/06 10:13:42;;;;;;;16.27;11.07;;;;;;;11.56;29.83;102116.41;4927268;29;20130;-87
2022/03/06 10:16:10;;;;;;;14.85;9.63;;;;;;;11.61;29.83;102125.22;4923496;29;20073;-89
2022/03/06 10:18:51;;;;;;;15.40;10.05;;;;;;;11.68;29.84;102123.94;4939397;29;20488;-90
2022/03/06 10:21:23;;;;;;;16.30;10.70;;;;;;;11.71;29.77;102127.38;4929835;29;20122;-89
2022/03/06 10:23:53;;;;;;;17.50;10.70;;;;;;;11.78;29.83;102126.13;4939865;28;20051;-90
2022/03/06 10:26:28;;;;;;;15.65;10.20;;;;;;;11.84;29.96;102133.13;4940750;29;20067;-90
2022/03/06 10:28:59;;;;;;;14.35;9.65;;;;;;;11.91;30.00;102125.50;4944440;29;20522;-90
2022/03/06 10:31:28;;;;;;;15.73;10.38;;;;;;;11.97;29.78;102130.63;4940223;29;20555;-89
2022/03/06 10:33:54;;;;;;;16.60;10.27;;;;;;;12.03;29.81;102133.00;4926169;29;20146;-89
2022/03/06 10:36:36;;;;;;;15.35;9.63;;;;;;;12.11;29.58;102130.75;4935882;29;20055;-89
2022/03/06 10:39:09;;;;;;;15.02;10.57;;;;;;;12.15;29.58;102121.50;4927751;29;20483;-89
2022/03/06 10:41:38;;;;;;;15.35;10.32;;;;;;;12.19;29.62;102128.50;4932772;29;20456;-90
2022/03/06 10:44:08;;;;;;;16.55;10.57;;;;;;;12.26;29.41;102121.81;4925904;29;20118;-89
2022/03/06 10:46:36;;;;;;;15.52;9.93;;;;;;;12.29;29.52;102128.91;4906331;29;20047;-89
2022/03/06 10:49:14;;;;;;;15.68;9.88;;;;;;;12.35;29.49;102121.31;4919118;29;20052;-89
2022/03/06 10:51:47;;;;;;;13.05;9.68;;;;;;;12.40;29.13;102112.88;4940725;29;20050;-89
2022/03/06 10:54:15;;;;;;;15.02;10.55;;;;;;;12.41;29.18;102111.91;4942209;29;20064;-90
2022/03/06 10:56:44;;;;;;;17.73;11.88;;;;;;;12.46;29.04;102115.25;4925189;29;20071;-89
2022/03/06 10:59:22;;;;;;;17.88;11.45;;;;;;;12.48;28.17;102111.50;4928976;29;20051;-90
2022/03/06 11:01:49;;;;;;;15.93;10.40;;;;;;;12.50;28.72;102106.84;4941724;29;20043;-88
2022/03/06 11:04:18;;;;;;;15.98;10.60;;;;;;;12.50;28.54;102112.31;4939715;29;20055;-90
2022/03/06 11:06:47;;;;;;;14.05;10.05;;;;;;;12.52;28.53;102104.91;4920191;29;20151;-90
2022/03/06 11:09:16;;;;;;;15.90;10.48;;;;;;;12.51;28.24;102114.06;4926046;29;20074;-89
2022/03/06 11:11:48;;;;;;;13.77;9.93;;;;;;;12.54;26.89;102116.59;4925353;29;20099;-90
2022/03/06 11:14:15;;;;;;;12.73;8.93;;;;;;;12.52;27.86;102106.75;4939860;29;20086;-92
2022/03/06 11:16:42;;;;;;;13.13;8.88;;;;;;;12.54;27.83;102111.16;4924976;29;20115;-92
2022/03/06 11:19:09;;;;;;;13.65;9.60;;;;;;;12.52;27.43;102099.44;4939129;29;20059;-92
2022/03/06 11:21:39;;;;;;;13.80;8.90;;;;;;;12.53;26.84;102092.16;4939639;29;20048;-92